sensor_id;sensor_type;location;lat;lon;timestamp;pressure;altitude;pressure_sealevel;temperature;humidity
16793;BME280;8513;42.662;23.350;2023-11-21T00:01:47;94734.06;;;5.45;65.92
16793;BME280;8513;42.662;23.350;2023-11-21T00:04:13;94727.50;;;5.51;65.65
16793;BME280;8513;42.662;23.350;2023-11-21T00:06:40;94741.41;;;5.61;65.65
16793;BME280;8513;42.662;23.350;2023-11-21T00:09:06;94741.19;;;5.64;65.05
16793;BME280;8513;42.662;23.350;2023-11-21T00:11:33;94734.69;;;5.59;65.85
16793;BME280;8513;42.662;23.350;2023-11-21T00:13:59;94735.13;;;5.22;66.94
16793;BME280;8513;42.662;23.350;2023-11-21T00:16:24;94732.97;;;5.06;67.46
16793;BME280;8513;42.662;23.350;2023-11-21T00:18:50;94736.31;;;5.18;67.61
16793;BME280;8513;42.662;23.350;2023-11-21T00:21:16;94737.91;;;5.09;67.87
16793;BME280;8513;42.662;23.350;2023-11-21T00:23:42;94737.53;;;5.14;67.33
16793;BME280;8513;42.662;23.350;2023-11-21T00:26:08;94735.13;;;5.22;67.24
16793;BME280;8513;42.662;23.350;2023-11-21T00:28:33;94731.28;;;5.05;67.81
16793;BME280;8513;42.662;23.350;2023-11-21T00:30:59;94725.41;;;5.24;67.58
16793;BME280;8513;42.662;23.350;2023-11-21T00:33:24;94721.16;;;5.44;66.75
16793;BME280;8513;42.662;23.350;2023-11-21T00:35:50;94730.94;;;5.51;66.20
16793;BME280;8513;42.662;23.350;2023-11-21T00:38:16;94728.44;;;5.71;65.39
16793;BME280;8513;42.662;23.350;2023-11-21T00:40:45;94718.09;;;5.60;65.55
16793;BME280;8513;42.662;23.350;2023-11-21T00:43:10;94729.22;;;5.41;66.49
16793;BME280;8513;42.662;23.350;2023-11-21T00:45:35;94716.56;;;5.57;66.67
16793;BME280;8513;42.662;23.350;2023-11-21T00:48:02;94717.28;;;5.38;66.86
16793;BME280;8513;42.662;23.350;2023-11-21T00:50:30;94733.03;;;5.58;66.18
16793;BME280;8513;42.662;23.350;2023-11-21T00:52:55;94734.44;;;5.62;66.06
16793;BME280;8513;42.662;23.350;2023-11-21T00:55:21;94728.63;;;5.58;66.08
16793;BME280;8513;42.662;23.350;2023-11-21T00:57:46;94721.13;;;5.65;65.75
16793;BME280;8513;42.662;23.350;2023-11-21T01:00:13;94725.53;;;5.64;65.36
16793;BME280;8513;42.662;23.350;2023-11-21T01:02:43;94713.84;;;5.59;65.59
16793;BME280;8513;42.662;23.350;2023-11-21T01:05:13;94717.00;;;5.62;65.31
16793;BME280;8513;42.662;23.350;2023-11-21T01:07:38;94710.78;;;5.53;65.51
16793;BME280;8513;42.662;23.350;2023-11-21T01:10:04;94714.44;;;5.72;65.11
16793;BME280;8513;42.662;23.350;2023-11-21T01:12:37;94708.00;;;5.45;66.06
16793;BME280;8513;42.662;23.350;2023-11-21T01:15:05;94719.94;;;5.27;66.28
16793;BME280;8513;42.662;23.350;2023-11-21T01:17:34;94708.00;;;5.24;66.98
16793;BME280;8513;42.662;23.350;2023-11-21T01:20:00;94714.59;;;5.49;65.81
16793;BME280;8513;42.662;23.350;2023-11-21T01:22:26;94717.47;;;5.46;65.76
16793;BME280;8513;42.662;23.350;2023-11-21T01:24:54;94720.44;;;5.42;65.66
16793;BME280;8513;42.662;23.350;2023-11-21T01:27:20;94723.41;;;5.58;65.33
16793;BME280;8513;42.662;23.350;2023-11-21T01:29:45;94718.97;;;5.49;65.19
16793;BME280;8513;42.662;23.350;2023-11-21T01:32:11;94718.97;;;5.49;65.19
16793;BME280;8513;42.662;23.350;2023-11-21T01:34:37;94708.22;;;5.42;65.38
16793;BME280;8513;42.662;23.350;2023-11-21T01:37:02;94709.94;;;5.53;65.23
16793;BME280;8513;42.662;23.350;2023-11-21T01:39:30;94708.09;;;5.44;64.99
16793;BME280;8513;42.662;23.350;2023-11-21T01:41:56;94714.41;;;5.41;65.50
16793;BME280;8513;42.662;23.350;2023-11-21T01:44:24;94721.22;;;5.33;65.63
16793;BME280;8513;42.662;23.350;2023-11-21T01:46:50;94720.22;;;4.92;66.81
16793;BME280;8513;42.662;23.350;2023-11-21T01:49:16;94726.88;;;5.17;66.61
16793;BME280;8513;42.662;23.350;2023-11-21T01:51:44;94707.03;;;5.25;65.65
16793;BME280;8513;42.662;23.350;2023-11-21T01:54:12;94698.31;;;5.15;66.05
16793;BME280;8513;42.662;23.350;2023-11-21T01:56:37;94702.91;;;5.23;65.85
16793;BME280;8513;42.662;23.350;2023-11-21T01:59:04;94713.69;;;5.18;65.79
16793;BME280;8513;42.662;23.350;2023-11-21T02:01:30;94713.00;;;5.16;66.01
16793;BME280;8513;42.662;23.350;2023-11-21T02:03:56;94708.44;;;5.29;65.98
16793;BME280;8513;42.662;23.350;2023-11-21T02:06:22;94717.31;;;5.06;66.29
16793;BME280;8513;42.662;23.350;2023-11-21T02:08:47;94706.22;;;5.25;65.75
16793;BME280;8513;42.662;23.350;2023-11-21T02:11:14;94714.53;;;5.19;65.90
16793;BME280;8513;42.662;23.350;2023-11-21T02:13:39;94718.03;;;5.29;65.83
16793;BME280;8513;42.662;23.350;2023-11-21T02:16:10;94713.00;;;4.95;65.92
16793;BME280;8513;42.662;23.350;2023-11-21T02:18:38;94713.47;;;4.57;67.35
16793;BME280;8513;42.662;23.350;2023-11-21T02:21:04;94709.66;;;4.61;67.61
16793;BME280;8513;42.662;23.350;2023-11-21T02:23:30;94709.06;;;4.69;67.24
16793;BME280;8513;42.662;23.350;2023-11-21T02:25:56;94713.66;;;4.65;67.83
16793;BME280;8513;42.662;23.350;2023-11-21T02:28:21;94704.38;;;4.83;67.47
16793;BME280;8513;42.662;23.350;2023-11-21T02:30:51;94702.69;;;4.61;67.89
16793;BME280;8513;42.662;23.350;2023-11-21T02:33:21;94704.63;;;4.48;68.01
16793;BME280;8513;42.662;23.350;2023-11-21T02:35:47;94704.03;;;4.45;68.65
16793;BME280;8513;42.662;23.350;2023-11-21T02:38:12;94699.34;;;4.71;67.82
16793;BME280;8513;42.662;23.350;2023-11-21T02:40:39;94698.22;;;4.84;67.18
16793;BME280;8513;42.662;23.350;2023-11-21T02:43:04;94696.66;;;4.93;67.03
16793;BME280;8513;42.662;23.350;2023-11-21T02:45:31;94694.66;;;4.85;67.07
16793;BME280;8513;42.662;23.350;2023-11-21T02:47:57;94705.22;;;4.84;67.28
16793;BME280;8513;42.662;23.350;2023-11-21T02:50:22;94703.50;;;4.94;66.96
16793;BME280;8513;42.662;23.350;2023-11-21T02:52:48;94708.16;;;4.91;66.87
16793;BME280;8513;42.662;23.350;2023-11-21T02:55:14;94706.63;;;4.88;66.54
16793;BME280;8513;42.662;23.350;2023-11-21T02:57:40;94703.19;;;4.88;66.94
16793;BME280;8513;42.662;23.350;2023-11-21T03:00:06;94710.13;;;4.98;66.81
16793;BME280;8513;42.662;23.350;2023-11-21T03:02:41;94705.91;;;4.86;66.90
16793;BME280;8513;42.662;23.350;2023-11-21T03:05:07;94699.63;;;4.89;67.08
16793;BME280;8513;42.662;23.350;2023-11-21T03:07:39;94693.28;;;4.81;67.33
16793;BME280;8513;42.662;23.350;2023-11-21T03:10:06;94687.19;;;4.60;68.43
16793;BME280;8513;42.662;23.350;2023-11-21T03:12:34;94698.91;;;4.66;68.36
16793;BME280;8513;42.662;23.350;2023-11-21T03:14:59;94694.91;;;4.82;68.12
16793;BME280;8513;42.662;23.350;2023-11-21T03:17:27;94697.56;;;4.71;67.80
16793;BME280;8513;42.662;23.350;2023-11-21T03:19:52;94693.69;;;4.66;67.82
16793;BME280;8513;42.662;23.350;2023-11-21T03:22:17;94702.16;;;4.47;68.43
16793;BME280;8513;42.662;23.350;2023-11-21T03:24:43;94703.84;;;4.69;67.74
16793;BME280;8513;42.662;23.350;2023-11-21T03:27:08;94708.44;;;4.76;67.74
16793;BME280;8513;42.662;23.350;2023-11-21T03:29:34;94709.59;;;4.83;67.38
16793;BME280;8513;42.662;23.350;2023-11-21T03:31:59;94718.19;;;4.95;67.26
16793;BME280;8513;42.662;23.350;2023-11-21T03:34:26;94716.81;;;4.80;67.36
16793;BME280;8513;42.662;23.350;2023-11-21T03:36:52;94711.34;;;4.51;68.21
16793;BME280;8513;42.662;23.350;2023-11-21T03:39:19;94715.16;;;4.47;68.97
16793;BME280;8513;42.662;23.350;2023-11-21T03:41:45;94704.31;;;4.19;69.45
16793;BME280;8513;42.662;23.350;2023-11-21T03:44:11;94711.19;;;4.09;70.33
16793;BME280;8513;42.662;23.350;2023-11-21T03:46:36;94705.81;;;4.33;69.41
16793;BME280;8513;42.662;23.350;2023-11-21T03:49:02;94695.41;;;4.44;69.11
16793;BME280;8513;42.662;23.350;2023-11-21T03:51:27;94697.69;;;4.26;69.18
16793;BME280;8513;42.662;23.350;2023-11-21T03:53:53;94684.44;;;4.29;69.58
16793;BME280;8513;42.662;23.350;2023-11-21T03:56:19;94677.19;;;4.33;69.17
16793;BME280;8513;42.662;23.350;2023-11-21T03:58:47;94693.38;;;4.48;69.22
16793;BME280;8513;42.662;23.350;2023-11-21T04:01:21;94680.56;;;4.56;68.83
16793;BME280;8513;42.662;23.350;2023-11-21T04:03:48;94688.22;;;4.36;69.63
16793;BME280;8513;42.662;23.350;2023-11-21T04:06:13;94680.44;;;4.25;69.75
16793;BME280;8513;42.662;23.350;2023-11-21T04:08:39;94678.94;;;4.43;69.57
16793;BME280;8513;42.662;23.350;2023-11-21T04:11:04;94679.38;;;4.60;69.04
16793;BME280;8513;42.662;23.350;2023-11-21T04:13:30;94678.06;;;4.66;68.88
16793;BME280;8513;42.662;23.350;2023-11-21T04:15:56;94671.69;;;4.58;68.76
16793;BME280;8513;42.662;23.350;2023-11-21T04:18:21;94670.44;;;4.30;69.35
16793;BME280;8513;42.662;23.350;2023-11-21T04:20:48;94677.69;;;4.27;69.72
16793;BME280;8513;42.662;23.350;2023-11-21T04:23:14;94675.97;;;4.48;69.02
16793;BME280;8513;42.662;23.350;2023-11-21T04:25:40;94672.91;;;4.43;69.01
16793;BME280;8513;42.662;23.350;2023-11-21T04:28:06;94670.16;;;4.56;68.73
16793;BME280;8513;42.662;23.350;2023-11-21T04:30:31;94676.72;;;4.71;68.22
16793;BME280;8513;42.662;23.350;2023-11-21T04:32:58;94676.91;;;4.58;68.59
16793;BME280;8513;42.662;23.350;2023-11-21T04:35:23;94694.56;;;4.43;68.95
16793;BME280;8513;42.662;23.350;2023-11-21T04:37:48;94675.47;;;4.54;68.58
16793;BME280;8513;42.662;23.350;2023-11-21T04:40:16;94673.31;;;4.71;67.61
16793;BME280;8513;42.662;23.350;2023-11-21T04:42:42;94679.53;;;4.79;67.74
16793;BME280;8513;42.662;23.350;2023-11-21T04:45:08;94672.91;;;4.75;67.50
16793;BME280;8513;42.662;23.350;2023-11-21T04:47:35;94682.50;;;4.75;67.82
16793;BME280;8513;42.662;23.350;2023-11-21T04:50:00;94672.13;;;4.63;68.08
16793;BME280;8513;42.662;23.350;2023-11-21T04:52:26;94682.16;;;4.79;67.88
16793;BME280;8513;42.662;23.350;2023-11-21T04:54:51;94675.06;;;4.70;68.00
16793;BME280;8513;42.662;23.350;2023-11-21T04:57:19;94685.16;;;4.63;68.61
16793;BME280;8513;42.662;23.350;2023-11-21T04:59:45;94676.78;;;4.81;67.57
16793;BME280;8513;42.662;23.350;2023-11-21T05:02:10;94676.69;;;4.50;68.49
16793;BME280;8513;42.662;23.350;2023-11-21T05:04:37;94696.03;;;4.25;69.45
16793;BME280;8513;42.662;23.350;2023-11-21T05:07:03;94680.09;;;4.51;69.03
16793;BME280;8513;42.662;23.350;2023-11-21T05:09:28;94700.00;;;4.52;68.68
16793;BME280;8513;42.662;23.350;2023-11-21T05:11:57;94690.84;;;4.14;69.94
16793;BME280;8513;42.662;23.350;2023-11-21T05:14:22;94673.16;;;4.40;69.14
16793;BME280;8513;42.662;23.350;2023-11-21T05:16:48;94676.91;;;4.58;68.18
16793;BME280;8513;42.662;23.350;2023-11-21T05:19:13;94668.78;;;4.40;68.87
16793;BME280;8513;42.662;23.350;2023-11-21T05:21:39;94670.66;;;4.50;68.44
16793;BME280;8513;42.662;23.350;2023-11-21T05:24:04;94668.63;;;4.53;68.44
16793;BME280;8513;42.662;23.350;2023-11-21T05:26:30;94674.88;;;4.18;69.33
16793;BME280;8513;42.662;23.350;2023-11-21T05:28:56;94672.50;;;4.15;69.65
16793;BME280;8513;42.662;23.350;2023-11-21T05:31:21;94683.03;;;4.25;69.27
16793;BME280;8513;42.662;23.350;2023-11-21T05:33:47;94690.38;;;4.09;69.78
16793;BME280;8513;42.662;23.350;2023-11-21T05:36:12;94695.34;;;4.12;70.15
16793;BME280;8513;42.662;23.350;2023-11-21T05:38:38;94692.03;;;4.21;69.77
16793;BME280;8513;42.662;23.350;2023-11-21T05:41:03;94683.53;;;4.51;68.90
16793;BME280;8513;42.662;23.350;2023-11-21T05:43:30;94693.03;;;4.52;68.90
16793;BME280;8513;42.662;23.350;2023-11-21T05:45:57;94693.44;;;4.25;69.43
16793;BME280;8513;42.662;23.350;2023-11-21T05:48:22;94689.50;;;4.42;69.30
16793;BME280;8513;42.662;23.350;2023-11-21T05:50:49;94692.25;;;4.61;68.52
16793;BME280;8513;42.662;23.350;2023-11-21T05:53:15;94687.78;;;4.63;68.56
16793;BME280;8513;42.662;23.350;2023-11-21T05:55:41;94689.31;;;4.66;68.55
16793;BME280;8513;42.662;23.350;2023-11-21T05:58:07;94689.16;;;4.68;68.24
16793;BME280;8513;42.662;23.350;2023-11-21T06:00:33;94691.84;;;4.77;68.22
16793;BME280;8513;42.662;23.350;2023-11-21T06:02:59;94687.50;;;4.67;68.36
16793;BME280;8513;42.662;23.350;2023-11-21T06:05:25;94690.56;;;4.72;68.15
16793;BME280;8513;42.662;23.350;2023-11-21T06:07:51;94689.19;;;4.89;67.84
16793;BME280;8513;42.662;23.350;2023-11-21T06:10:24;94693.06;;;4.94;67.84
16793;BME280;8513;42.662;23.350;2023-11-21T06:12:50;94697.16;;;4.87;67.97
16793;BME280;8513;42.662;23.350;2023-11-21T06:15:15;94700.72;;;5.07;67.35
16793;BME280;8513;42.662;23.350;2023-11-21T06:17:44;94701.97;;;4.92;67.97
16793;BME280;8513;42.662;23.350;2023-11-21T06:20:14;94696.38;;;4.96;68.46
16793;BME280;8513;42.662;23.350;2023-11-21T06:22:45;94712.69;;;5.09;67.94
16793;BME280;8513;42.662;23.350;2023-11-21T06:25:12;94708.09;;;5.23;67.28
16793;BME280;8513;42.662;23.350;2023-11-21T06:27:39;94713.50;;;5.10;67.84
16793;BME280;8513;42.662;23.350;2023-11-21T06:30:06;94710.31;;;5.06;67.60
16793;BME280;8513;42.662;23.350;2023-11-21T06:32:32;94707.66;;;5.18;67.12
16793;BME280;8513;42.662;23.350;2023-11-21T06:34:58;94711.53;;;5.23;67.18
16793;BME280;8513;42.662;23.350;2023-11-21T06:37:26;94722.38;;;5.19;67.54
16793;BME280;8513;42.662;23.350;2023-11-21T06:39:52;94725.47;;;5.34;66.97
16793;BME280;8513;42.662;23.350;2023-11-21T06:42:18;94713.59;;;5.41;66.44
16793;BME280;8513;42.662;23.350;2023-11-21T06:44:45;94719.25;;;5.25;66.92
16793;BME280;8513;42.662;23.350;2023-11-21T06:47:11;94730.28;;;5.17;67.51
16793;BME280;8513;42.662;23.350;2023-11-21T06:49:36;94729.94;;;5.43;67.11
16793;BME280;8513;42.662;23.350;2023-11-21T06:52:06;94715.22;;;5.42;66.91
16793;BME280;8513;42.662;23.350;2023-11-21T06:54:31;94729.09;;;5.42;67.08
16793;BME280;8513;42.662;23.350;2023-11-21T06:56:58;94736.88;;;5.33;67.54
16793;BME280;8513;42.662;23.350;2023-11-21T06:59:23;94735.97;;;5.43;67.11
16793;BME280;8513;42.662;23.350;2023-11-21T07:01:50;94735.38;;;5.40;66.83
16793;BME280;8513;42.662;23.350;2023-11-21T07:04:15;94723.94;;;5.52;66.33
16793;BME280;8513;42.662;23.350;2023-11-21T07:06:41;94729.59;;;5.57;66.10
16793;BME280;8513;42.662;23.350;2023-11-21T07:09:06;94730.50;;;5.46;66.81
16793;BME280;8513;42.662;23.350;2023-11-21T07:11:42;94723.78;;;5.74;66.50
16793;BME280;8513;42.662;23.350;2023-11-21T07:14:11;94705.56;;;5.53;66.69
16793;BME280;8513;42.662;23.350;2023-11-21T07:16:37;94716.72;;;5.86;65.37
16793;BME280;8513;42.662;23.350;2023-11-21T07:19:06;94709.53;;;6.00;65.10
16793;BME280;8513;42.662;23.350;2023-11-21T07:21:36;94712.03;;;5.90;65.41
16793;BME280;8513;42.662;23.350;2023-11-21T07:24:05;94720.19;;;6.17;64.29
16793;BME280;8513;42.662;23.350;2023-11-21T07:26:31;94718.91;;;6.12;64.89
16793;BME280;8513;42.662;23.350;2023-11-21T07:28:57;94718.22;;;6.19;64.43
16793;BME280;8513;42.662;23.350;2023-11-21T07:31:23;94726.34;;;6.16;64.52
16793;BME280;8513;42.662;23.350;2023-11-21T07:33:49;94729.94;;;6.25;64.17
16793;BME280;8513;42.662;23.350;2023-11-21T07:36:16;94717.78;;;6.45;63.75
16793;BME280;8513;42.662;23.350;2023-11-21T07:38:44;94727.31;;;6.25;64.58
16793;BME280;8513;42.662;23.350;2023-11-21T07:41:10;94719.41;;;6.36;64.35
16793;BME280;8513;42.662;23.350;2023-11-21T07:43:36;94720.19;;;6.17;64.41
16793;BME280;8513;42.662;23.350;2023-11-21T07:46:02;94716.47;;;6.30;64.28
16793;BME280;8513;42.662;23.350;2023-11-21T07:48:31;94721.72;;;6.30;64.73
16793;BME280;8513;42.662;23.350;2023-11-21T07:50:58;94720.34;;;6.35;64.51
16793;BME280;8513;42.662;23.350;2023-11-21T07:53:26;94714.22;;;6.56;63.82
16793;BME280;8513;42.662;23.350;2023-11-21T07:55:54;94710.47;;;6.49;63.95
16793;BME280;8513;42.662;23.350;2023-11-21T07:58:19;94710.13;;;6.63;63.61
16793;BME280;8513;42.662;23.350;2023-11-21T08:00:45;94705.69;;;6.54;63.76
16793;BME280;8513;42.662;23.350;2023-11-21T08:03:10;94702.81;;;6.47;64.12
16793;BME280;8513;42.662;23.350;2023-11-21T08:05:36;94709.00;;;6.56;63.90
16793;BME280;8513;42.662;23.350;2023-11-21T08:08:02;94699.25;;;6.77;63.23
16793;BME280;8513;42.662;23.350;2023-11-21T08:10:27;94687.72;;;6.80;62.69
16793;BME280;8513;42.662;23.350;2023-11-21T08:12:52;94697.06;;;6.82;63.30
16793;BME280;8513;42.662;23.350;2023-11-21T08:15:19;94692.78;;;6.72;63.79
16793;BME280;8513;42.662;23.350;2023-11-21T08:17:46;94695.28;;;6.83;63.38
16793;BME280;8513;42.662;23.350;2023-11-21T08:20:11;94697.88;;;6.63;63.53
16793;BME280;8513;42.662;23.350;2023-11-21T08:22:37;94700.22;;;6.86;63.35
16793;BME280;8513;42.662;23.350;2023-11-21T08:25:03;94699.53;;;7.23;61.99
16793;BME280;8513;42.662;23.350;2023-11-21T08:27:31;94687.69;;;7.19;62.31
16793;BME280;8513;42.662;23.350;2023-11-21T08:29:56;94682.63;;;7.17;62.70
16793;BME280;8513;42.662;23.350;2023-11-21T08:32:22;94692.22;;;7.36;62.09
16793;BME280;8513;42.662;23.350;2023-11-21T08:34:48;94693.31;;;7.34;62.30
16793;BME280;8513;42.662;23.350;2023-11-21T08:37:16;94701.53;;;7.58;61.22
16793;BME280;8513;42.662;23.350;2023-11-21T08:39:43;94687.69;;;7.38;61.87
16793;BME280;8513;42.662;23.350;2023-11-21T08:42:08;94677.63;;;7.34;62.35
16793;BME280;8513;42.662;23.350;2023-11-21T08:44:34;94689.47;;;7.38;62.49
16793;BME280;8513;42.662;23.350;2023-11-21T08:46:59;94689.19;;;7.31;62.68
16793;BME280;8513;42.662;23.350;2023-11-21T08:49:24;94680.91;;;7.55;61.82
16793;BME280;8513;42.662;23.350;2023-11-21T08:51:52;94671.72;;;7.41;62.09
16793;BME280;8513;42.662;23.350;2023-11-21T08:54:20;94678.72;;;7.41;62.13
16793;BME280;8513;42.662;23.350;2023-11-21T08:56:46;94678.03;;;7.48;61.79
16793;BME280;8513;42.662;23.350;2023-11-21T08:59:11;94674.78;;;7.74;61.14
16793;BME280;8513;42.662;23.350;2023-11-21T09:01:40;94665.06;;;7.94;60.66
16793;BME280;8513;42.662;23.350;2023-11-21T09:04:06;94664.81;;;7.87;60.88
16793;BME280;8513;42.662;23.350;2023-11-21T09:06:31;94653.50;;;7.97;59.76
16793;BME280;8513;42.662;23.350;2023-11-21T09:08:57;94644.63;;;8.07;59.56
16793;BME280;8513;42.662;23.350;2023-11-21T09:11:23;94643.34;;;8.11;59.33
16793;BME280;8513;42.662;23.350;2023-11-21T09:13:48;94622.75;;;8.26;58.94
16793;BME280;8513;42.662;23.350;2023-11-21T09:16:14;94618.69;;;8.32;58.52
16793;BME280;8513;42.662;23.350;2023-11-21T09:18:41;94616.22;;;8.30;58.92
16793;BME280;8513;42.662;23.350;2023-11-21T09:21:06;94610.97;;;8.40;59.07
16793;BME280;8513;42.662;23.350;2023-11-21T09:23:31;94625.69;;;8.41;59.40
16793;BME280;8513;42.662;23.350;2023-11-21T09:25:57;94616.72;;;8.44;59.18
16793;BME280;8513;42.662;23.350;2023-11-21T09:28:25;94599.66;;;8.39;59.38
16793;BME280;8513;42.662;23.350;2023-11-21T09:30:52;94593.44;;;8.41;59.31
16793;BME280;8513;42.662;23.350;2023-11-21T09:33:18;94583.63;;;8.43;59.41
16793;BME280;8513;42.662;23.350;2023-11-21T09:35:44;94565.59;;;8.39;59.40
16793;BME280;8513;42.662;23.350;2023-11-21T09:38:09;94556.91;;;8.57;59.15
16793;BME280;8513;42.662;23.350;2023-11-21T09:40:38;94558.97;;;8.71;59.03
16793;BME280;8513;42.662;23.350;2023-11-21T09:43:11;94561.75;;;8.70;58.53
16793;BME280;8513;42.662;23.350;2023-11-21T09:45:44;94557.09;;;8.81;58.31
16793;BME280;8513;42.662;23.350;2023-11-21T09:48:10;94549.19;;;8.99;57.89
16793;BME280;8513;42.662;23.350;2023-11-21T09:50:37;94549.16;;;8.73;58.11
16793;BME280;8513;42.662;23.350;2023-11-21T09:55:36;94533.97;;;9.29;56.51
16793;BME280;8513;42.662;23.350;2023-11-21T09:58:04;94517.78;;;9.34;56.71
16793;BME280;8513;42.662;23.350;2023-11-21T10:00:33;94521.91;;;9.44;56.55
16793;BME280;8513;42.662;23.350;2023-11-21T10:02:59;94520.72;;;9.31;56.62
16793;BME280;8513;42.662;23.350;2023-11-21T10:05:25;94517.81;;;9.42;56.54
16793;BME280;8513;42.662;23.350;2023-11-21T10:07:51;94517.31;;;9.89;55.11
16793;BME280;8513;42.662;23.350;2023-11-21T10:10:21;94512.09;;;9.46;56.17
16793;BME280;8513;42.662;23.350;2023-11-21T10:12:49;94502.13;;;9.58;55.86
16793;BME280;8513;42.662;23.350;2023-11-21T10:15:21;94507.94;;;9.78;54.90
16793;BME280;8513;42.662;23.350;2023-11-21T10:17:49;94512.13;;;10.05;54.13
16793;BME280;8513;42.662;23.350;2023-11-21T10:20:14;94502.94;;;10.26;53.85
16793;BME280;8513;42.662;23.350;2023-11-21T10:22:41;94494.09;;;10.27;53.69
16793;BME280;8513;42.662;23.350;2023-11-21T10:25:08;94485.25;;;10.36;53.26
16793;BME280;8513;42.662;23.350;2023-11-21T10:27:37;94474.38;;;10.23;53.99
16793;BME280;8513;42.662;23.350;2023-11-21T10:30:06;94478.38;;;10.43;53.51
16793;BME280;8513;42.662;23.350;2023-11-21T10:32:39;94489.81;;;10.26;54.13
16793;BME280;8513;42.662;23.350;2023-11-21T10:35:06;94489.03;;;10.58;52.36
16793;BME280;8513;42.662;23.350;2023-11-21T10:37:36;94482.97;;;10.33;52.26
16793;BME280;8513;42.662;23.350;2023-11-21T10:40:08;94476.53;;;10.19;52.52
16793;BME280;8513;42.662;23.350;2023-11-21T10:42:37;94461.47;;;10.46;52.40
16793;BME280;8513;42.662;23.350;2023-11-21T10:45:04;94458.84;;;10.46;52.24
16793;BME280;8513;42.662;23.350;2023-11-21T10:47:35;94468.53;;;10.53;51.83
16793;BME280;8513;42.662;23.350;2023-11-21T10:50:01;94461.78;;;10.51;51.23
16793;BME280;8513;42.662;23.350;2023-11-21T10:52:27;94465.34;;;10.25;51.94
16793;BME280;8513;42.662;23.350;2023-11-21T10:54:53;94456.84;;;10.31;51.80
16793;BME280;8513;42.662;23.350;2023-11-21T10:57:19;94454.88;;;10.33;52.16
16793;BME280;8513;42.662;23.350;2023-11-21T10:59:47;94449.81;;;10.32;51.90
16793;BME280;8513;42.662;23.350;2023-11-21T11:02:24;94447.94;;;10.08;52.42
16793;BME280;8513;42.662;23.350;2023-11-21T11:04:54;94449.09;;;10.05;52.76
16793;BME280;8513;42.662;23.350;2023-11-21T11:07:22;94442.03;;;10.14;52.50
16793;BME280;8513;42.662;23.350;2023-11-21T11:09:49;94442.19;;;10.12;52.57
16793;BME280;8513;42.662;23.350;2023-11-21T11:12:16;94445.94;;;10.10;52.83
16793;BME280;8513;42.662;23.350;2023-11-21T11:14:42;94438.91;;;10.10;52.96
16793;BME280;8513;42.662;23.350;2023-11-21T11:17:10;94430.19;;;10.18;52.03
16793;BME280;8513;42.662;23.350;2023-11-21T11:19:36;94430.03;;;10.20;52.70
16793;BME280;8513;42.662;23.350;2023-11-21T11:22:34;94427.44;;;10.28;52.48
16793;BME280;8513;42.662;23.350;2023-11-21T11:28:00;94391.78;;;10.50;52.52
16793;BME280;8513;42.662;23.350;2023-11-21T11:36:10;94401.81;;;10.54;51.47
16793;BME280;8513;42.662;23.350;2023-11-21T11:38:38;94396.09;;;10.34;52.09
16793;BME280;8513;42.662;23.350;2023-11-21T11:41:07;94386.53;;;10.50;51.97
16793;BME280;8513;42.662;23.350;2023-11-21T11:43:34;94391.47;;;10.36;52.40
16793;BME280;8513;42.662;23.350;2023-11-21T11:46:10;94402.63;;;10.47;52.47
16793;BME280;8513;42.662;23.350;2023-11-21T11:48:39;94401.81;;;10.46;52.08
16793;BME280;8513;42.662;23.350;2023-11-21T11:51:12;94406.25;;;10.46;52.50
16793;BME280;8513;42.662;23.350;2023-11-21T11:53:47;94419.19;;;10.23;53.22
16793;BME280;8513;42.662;23.350;2023-11-21T11:56:26;94417.41;;;10.15;53.62
16793;BME280;8513;42.662;23.350;2023-11-21T11:58:54;94392.28;;;10.29;53.50
16793;BME280;8513;42.662;23.350;2023-11-21T12:01:21;94404.91;;;10.17;55.29
16793;BME280;8513;42.662;23.350;2023-11-21T12:06:45;94389.97;;;10.18;56.09
16793;BME280;8513;42.662;23.350;2023-11-21T12:09:23;94407.69;;;10.07;56.79
16793;BME280;8513;42.662;23.350;2023-11-21T12:11:49;94401.28;;;10.18;56.71
16793;BME280;8513;42.662;23.350;2023-11-21T12:14:15;94404.63;;;10.28;57.42
16793;BME280;8513;42.662;23.350;2023-11-21T12:16:42;94411.47;;;9.97;59.19
16793;BME280;8513;42.662;23.350;2023-11-21T12:19:11;94408.34;;;9.85;59.66
16793;BME280;8513;42.662;23.350;2023-11-21T12:21:37;94412.59;;;9.86;59.89
16793;BME280;8513;42.662;23.350;2023-11-21T12:24:04;94406.53;;;9.93;60.20
16793;BME280;8513;42.662;23.350;2023-11-21T12:26:34;94393.72;;;9.82;61.34
16793;BME280;8513;42.662;23.350;2023-11-21T12:29:00;94394.88;;;9.88;60.94
16793;BME280;8513;42.662;23.350;2023-11-21T12:31:26;94398.50;;;9.87;61.89
16793;BME280;8513;42.662;23.350;2023-11-21T12:33:54;94398.00;;;9.91;60.93
16793;BME280;8513;42.662;23.350;2023-11-21T12:36:21;94404.09;;;9.92;60.39
16793;BME280;8513;42.662;23.350;2023-11-21T12:38:48;94411.13;;;9.91;60.59
16793;BME280;8513;42.662;23.350;2023-11-21T12:41:15;94414.75;;;9.82;61.54
16793;BME280;8513;42.662;23.350;2023-11-21T12:43:42;94399.13;;;9.64;62.14
16793;BME280;8513;42.662;23.350;2023-11-21T12:46:10;94403.88;;;9.61;63.23
16793;BME280;8513;42.662;23.350;2023-11-21T12:48:39;94392.19;;;9.47;62.80
16793;BME280;8513;42.662;23.350;2023-11-21T12:51:09;94395.84;;;9.62;62.89
16793;BME280;8513;42.662;23.350;2023-11-21T12:53:35;94393.22;;;9.62;62.57
16793;BME280;8513;42.662;23.350;2023-11-21T12:56:11;94380.59;;;9.66;62.59
16793;BME280;8513;42.662;23.350;2023-11-21T12:58:37;94375.81;;;9.69;62.72
16793;BME280;8513;42.662;23.350;2023-11-21T13:01:06;94366.47;;;9.67;63.55
16793;BME280;8513;42.662;23.350;2023-11-21T13:03:37;94357.47;;;9.78;63.81
16793;BME280;8513;42.662;23.350;2023-11-21T13:06:03;94370.25;;;9.72;64.04
16793;BME280;8513;42.662;23.350;2023-11-21T13:08:30;94357.78;;;9.83;62.33
16793;BME280;8513;42.662;23.350;2023-11-21T13:10:58;94359.75;;;9.89;61.57
16793;BME280;8513;42.662;23.350;2023-11-21T13:13:24;94368.78;;;9.78;61.52
16793;BME280;8513;42.662;23.350;2023-11-21T13:15:52;94362.03;;;9.67;61.15
16793;BME280;8513;42.662;23.350;2023-11-21T13:18:21;94363.38;;;9.71;61.32
16793;BME280;8513;42.662;23.350;2023-11-21T13:20:47;94358.13;;;9.80;61.59
16793;BME280;8513;42.662;23.350;2023-11-21T13:23:13;94357.47;;;9.78;61.55